This is the latest recevied weather packets stored in our database for station/object KG7FOQ-13. If no packets are shown the sender has not sent any weather packets the latest 1 day(s).
| Time | Temp. | Humidity | Pressure | Rain* | Wind** | Luminosity | Snow |
|---|---|---|---|---|---|---|---|
| 1778004488 | 15.56° C | 48% | 1009.6 hPa | 0 mm | 9.39 m/s, 31° | - | - |
| 1778004187 | 15.56° C | 47% | 1009.6 hPa | 0 mm | 8.94 m/s, 42° | - | - |
| 1778003887 | 16.11° C | 47% | 1009.7 hPa | 0 mm | 7.6 m/s, 41° | - | - |
| 1778003586 | 16.11° C | 49% | 1009.7 hPa | 0 mm | 7.15 m/s, 37° | - | - |
| 1778003286 | 15.56° C | 48% | 1009.8 hPa | 0 mm | 7.15 m/s, 42° | - | - |
| 1778002985 | 15.56° C | 48% | 1009.7 hPa | 0 mm | 8.94 m/s, 72° | - | - |
| 1778002684 | 15.56° C | 47% | 1009.7 hPa | 0 mm | 8.05 m/s, 48° | - | - |
| 1778002384 | 14.44° C | 47% | 1009.7 hPa | 0 mm | 10.28 m/s, 86° | - | - |
| 1778002091 | 14.44° C | 47% | 1009.7 hPa | 0 mm | 8.49 m/s, 59° | - | - |
| 1778001783 | 15° C | 49% | 1009.7 hPa | 0 mm | 8.49 m/s, 79° | - | - |
| 1778001481 | 14.44° C | 48% | 1009.7 hPa | 0 mm | 8.94 m/s, 55° | - | - |
| 1778001181 | 13.89° C | 48% | 1009.8 hPa | 0 mm | 9.83 m/s, 82° | - | - |
| 1778000878 | 13.89° C | 48% | 1009.8 hPa | 0 mm | 11.18 m/s, 70° | - | - |
| 1778000578 | 13.89° C | 49% | 1009.8 hPa | 0 mm | 10.28 m/s, 62° | - | - |
| 1777999977 | 13.89° C | 48% | 1009.7 hPa | 0 mm | 9.39 m/s, 48° | - | - |
| 1777999676 | 13.89° C | 48% | 1009.7 hPa | 0 mm | 12.07 m/s, 52° | - | - |
| 1777999376 | 13.33° C | 48% | 1009.7 hPa | 0 mm | 12.07 m/s, 72° | - | - |
| 1777999074 | 13.33° C | 46% | 1009.7 hPa | 0 mm | 12.96 m/s, 66° | - | - |
| 1777998774 | 12.78° C | 46% | 1009.8 hPa | 0 mm | 11.62 m/s, 59° | - | - |
| 1777998173 | 12.78° C | 46% | 1009.9 hPa | 0 mm | 11.62 m/s, 80° | - | - |
| 1777997872 | 12.22° C | 47% | 1009.9 hPa | 0 mm | 10.73 m/s, 77° | - | - |
| 1777997572 | 12.78° C | 46% | 1010 hPa | 0 mm | 11.18 m/s, 59° | - | - |
| 1777997271 | 12.22° C | 45% | 1010.2 hPa | 0 mm | 11.18 m/s, 69° | - | - |
| 1777996971 | 12.22° C | 45% | 1010.2 hPa | 0 mm | 11.18 m/s, 63° | - | - |
| 1777996670 | 11.67° C | 46% | 1010.2 hPa | 0 mm | 9.83 m/s, 52° | - | - |
* Rain latest hour (hover to see other rain measurements)
** Current wind speed in m/s (hover to see current wind gust speed)